sensor_id;sensor_type;location;lat;lon;timestamp;P1;durP1;ratioP1;P2;durP2;ratioP2
4274;SDS011;2151;50.988;11.068;2023-05-07T00:02:16;155.47;;;25.60;;
4274;SDS011;2151;50.988;11.068;2023-05-07T00:04:42;153.70;;;23.97;;
4274;SDS011;2151;50.988;11.068;2023-05-07T00:07:08;154.07;;;23.90;;
4274;SDS011;2151;50.988;11.068;2023-05-07T00:09:35;155.57;;;25.93;;
4274;SDS011;2151;50.988;11.068;2023-05-07T00:12:02;152.37;;;24.40;;
4274;SDS011;2151;50.988;11.068;2023-05-07T00:14:28;155.17;;;25.87;;
4274;SDS011;2151;50.988;11.068;2023-05-07T00:16:55;149.47;;;23.20;;
4274;SDS011;2151;50.988;11.068;2023-05-07T00:19:21;152.20;;;23.20;;
4274;SDS011;2151;50.988;11.068;2023-05-07T00:21:48;152.90;;;24.90;;
4274;SDS011;2151;50.988;11.068;2023-05-07T00:24:14;148.17;;;22.63;;
4274;SDS011;2151;50.988;11.068;2023-05-07T00:26:41;152.90;;;23.83;;
4274;SDS011;2151;50.988;11.068;2023-05-07T00:29:07;148.70;;;23.17;;
4274;SDS011;2151;50.988;11.068;2023-05-07T00:31:34;145.43;;;21.27;;
4274;SDS011;2151;50.988;11.068;2023-05-07T00:34:00;154.27;;;24.23;;
4274;SDS011;2151;50.988;11.068;2023-05-07T00:36:26;149.67;;;23.20;;
4274;SDS011;2151;50.988;11.068;2023-05-07T00:38:53;147.50;;;22.77;;
4274;SDS011;2151;50.988;11.068;2023-05-07T00:41:20;153.20;;;23.87;;
4274;SDS011;2151;50.988;11.068;2023-05-07T00:43:47;152.70;;;24.70;;
4274;SDS011;2151;50.988;11.068;2023-05-07T00:46:13;150.07;;;24.43;;
4274;SDS011;2151;50.988;11.068;2023-05-07T00:48:42;153.27;;;24.30;;
4274;SDS011;2151;50.988;11.068;2023-05-07T00:51:09;154.20;;;23.60;;
4274;SDS011;2151;50.988;11.068;2023-05-07T00:53:37;151.00;;;23.50;;
4274;SDS011;2151;50.988;11.068;2023-05-07T00:56:04;160.40;;;25.47;;
4274;SDS011;2151;50.988;11.068;2023-05-07T00:58:32;157.77;;;25.20;;
4274;SDS011;2151;50.988;11.068;2023-05-07T01:00:59;157.40;;;22.93;;
4274;SDS011;2151;50.988;11.068;2023-05-07T01:03:26;150.30;;;23.00;;
4274;SDS011;2151;50.988;11.068;2023-05-07T01:05:53;155.77;;;24.90;;
4274;SDS011;2151;50.988;11.068;2023-05-07T01:08:21;158.60;;;23.80;;
4274;SDS011;2151;50.988;11.068;2023-05-07T01:10:48;157.50;;;25.60;;
4274;SDS011;2151;50.988;11.068;2023-05-07T01:13:15;162.37;;;26.00;;
4274;SDS011;2151;50.988;11.068;2023-05-07T01:15:42;155.00;;;24.13;;
4274;SDS011;2151;50.988;11.068;2023-05-07T01:18:08;157.07;;;22.77;;
4274;SDS011;2151;50.988;11.068;2023-05-07T01:20:35;152.70;;;23.30;;
4274;SDS011;2151;50.988;11.068;2023-05-07T01:23:01;150.50;;;22.53;;
4274;SDS011;2151;50.988;11.068;2023-05-07T01:25:29;156.50;;;23.70;;
4274;SDS011;2151;50.988;11.068;2023-05-07T01:27:56;151.87;;;23.20;;
4274;SDS011;2151;50.988;11.068;2023-05-07T01:30:23;158.83;;;24.10;;
4274;SDS011;2151;50.988;11.068;2023-05-07T01:32:51;153.10;;;25.27;;
4274;SDS011;2151;50.988;11.068;2023-05-07T01:35:19;169.87;;;23.10;;
4274;SDS011;2151;50.988;11.068;2023-05-07T01:37:48;151.50;;;23.20;;
4274;SDS011;2151;50.988;11.068;2023-05-07T01:40:15;155.13;;;21.83;;
4274;SDS011;2151;50.988;11.068;2023-05-07T01:42:43;150.63;;;21.77;;
4274;SDS011;2151;50.988;11.068;2023-05-07T01:45:09;150.50;;;22.03;;
4274;SDS011;2151;50.988;11.068;2023-05-07T01:47:36;156.07;;;22.23;;
4274;SDS011;2151;50.988;11.068;2023-05-07T01:50:04;157.87;;;24.87;;
4274;SDS011;2151;50.988;11.068;2023-05-07T01:52:31;163.93;;;24.70;;
4274;SDS011;2151;50.988;11.068;2023-05-07T01:54:57;162.03;;;25.13;;
4274;SDS011;2151;50.988;11.068;2023-05-07T01:57:24;157.40;;;23.47;;
4274;SDS011;2151;50.988;11.068;2023-05-07T01:59:50;160.17;;;23.47;;
4274;SDS011;2151;50.988;11.068;2023-05-07T02:02:17;158.63;;;25.13;;
4274;SDS011;2151;50.988;11.068;2023-05-07T02:04:43;166.43;;;25.13;;
4274;SDS011;2151;50.988;11.068;2023-05-07T02:07:09;158.53;;;25.47;;
4274;SDS011;2151;50.988;11.068;2023-05-07T02:09:37;152.77;;;22.47;;
4274;SDS011;2151;50.988;11.068;2023-05-07T02:12:04;162.40;;;25.30;;
4274;SDS011;2151;50.988;11.068;2023-05-07T02:14:30;160.80;;;24.73;;
4274;SDS011;2151;50.988;11.068;2023-05-07T02:16:57;159.07;;;24.13;;
4274;SDS011;2151;50.988;11.068;2023-05-07T02:19:23;159.20;;;24.63;;
4274;SDS011;2151;50.988;11.068;2023-05-07T02:21:49;163.50;;;25.50;;
4274;SDS011;2151;50.988;11.068;2023-05-07T02:24:16;155.67;;;23.27;;
4274;SDS011;2151;50.988;11.068;2023-05-07T02:26:43;158.90;;;23.90;;
4274;SDS011;2151;50.988;11.068;2023-05-07T02:29:09;157.77;;;23.67;;
4274;SDS011;2151;50.988;11.068;2023-05-07T02:31:35;161.47;;;25.50;;
4274;SDS011;2151;50.988;11.068;2023-05-07T02:34:02;156.27;;;24.07;;
4274;SDS011;2151;50.988;11.068;2023-05-07T02:36:28;156.53;;;25.20;;
4274;SDS011;2151;50.988;11.068;2023-05-07T02:38:55;161.30;;;26.57;;
4274;SDS011;2151;50.988;11.068;2023-05-07T02:41:21;165.83;;;26.17;;
4274;SDS011;2151;50.988;11.068;2023-05-07T02:43:47;156.00;;;23.67;;
4274;SDS011;2151;50.988;11.068;2023-05-07T02:46:14;154.07;;;24.73;;
4274;SDS011;2151;50.988;11.068;2023-05-07T02:48:41;160.07;;;25.73;;
4274;SDS011;2151;50.988;11.068;2023-05-07T02:51:08;157.53;;;24.90;;
4274;SDS011;2151;50.988;11.068;2023-05-07T02:53:34;158.13;;;25.73;;
4274;SDS011;2151;50.988;11.068;2023-05-07T02:56:01;157.57;;;24.37;;
4274;SDS011;2151;50.988;11.068;2023-05-07T02:58:27;158.77;;;25.40;;
4274;SDS011;2151;50.988;11.068;2023-05-07T03:00:54;156.90;;;24.97;;
4274;SDS011;2151;50.988;11.068;2023-05-07T03:03:23;161.67;;;25.07;;
4274;SDS011;2151;50.988;11.068;2023-05-07T03:05:50;162.50;;;27.50;;
4274;SDS011;2151;50.988;11.068;2023-05-07T03:08:16;157.47;;;25.70;;
4274;SDS011;2151;50.988;11.068;2023-05-07T03:10:43;155.43;;;23.80;;
4274;SDS011;2151;50.988;11.068;2023-05-07T03:13:09;149.90;;;22.27;;
4274;SDS011;2151;50.988;11.068;2023-05-07T03:15:36;153.07;;;22.57;;
4274;SDS011;2151;50.988;11.068;2023-05-07T03:18:02;151.77;;;21.40;;
4274;SDS011;2151;50.988;11.068;2023-05-07T03:20:29;148.93;;;20.40;;
4274;SDS011;2151;50.988;11.068;2023-05-07T03:22:56;148.77;;;21.57;;
4274;SDS011;2151;50.988;11.068;2023-05-07T03:25:22;150.00;;;20.60;;
4274;SDS011;2151;50.988;11.068;2023-05-07T03:27:49;149.27;;;20.50;;
4274;SDS011;2151;50.988;11.068;2023-05-07T03:30:15;148.83;;;21.00;;
4274;SDS011;2151;50.988;11.068;2023-05-07T03:32:42;146.30;;;20.40;;
4274;SDS011;2151;50.988;11.068;2023-05-07T03:35:09;147.67;;;20.67;;
4274;SDS011;2151;50.988;11.068;2023-05-07T03:37:35;144.07;;;19.53;;
4274;SDS011;2151;50.988;11.068;2023-05-07T03:40:02;154.53;;;19.10;;
4274;SDS011;2151;50.988;11.068;2023-05-07T03:42:29;149.20;;;20.03;;
4274;SDS011;2151;50.988;11.068;2023-05-07T03:44:55;152.00;;;20.50;;
4274;SDS011;2151;50.988;11.068;2023-05-07T03:47:22;145.13;;;19.20;;
4274;SDS011;2151;50.988;11.068;2023-05-07T03:49:48;147.23;;;19.50;;
4274;SDS011;2151;50.988;11.068;2023-05-07T03:52:16;151.27;;;19.40;;
4274;SDS011;2151;50.988;11.068;2023-05-07T03:54:48;146.97;;;19.67;;
4274;SDS011;2151;50.988;11.068;2023-05-07T03:57:14;145.60;;;19.03;;
4274;SDS011;2151;50.988;11.068;2023-05-07T03:59:41;145.97;;;20.10;;
4274;SDS011;2151;50.988;11.068;2023-05-07T04:02:07;148.97;;;20.93;;
4274;SDS011;2151;50.988;11.068;2023-05-07T04:04:34;149.70;;;21.47;;
4274;SDS011;2151;50.988;11.068;2023-05-07T04:07:00;148.43;;;19.93;;
4274;SDS011;2151;50.988;11.068;2023-05-07T04:09:27;152.13;;;20.80;;
4274;SDS011;2151;50.988;11.068;2023-05-07T04:11:53;153.53;;;22.53;;
4274;SDS011;2151;50.988;11.068;2023-05-07T04:14:19;150.90;;;20.83;;
4274;SDS011;2151;50.988;11.068;2023-05-07T04:16:46;154.63;;;21.87;;
4274;SDS011;2151;50.988;11.068;2023-05-07T04:19:12;151.70;;;21.50;;
4274;SDS011;2151;50.988;11.068;2023-05-07T04:21:38;147.83;;;20.73;;
4274;SDS011;2151;50.988;11.068;2023-05-07T04:24:06;149.73;;;20.50;;
4274;SDS011;2151;50.988;11.068;2023-05-07T04:26:32;149.23;;;20.13;;
4274;SDS011;2151;50.988;11.068;2023-05-07T04:29:00;145.33;;;19.63;;
4274;SDS011;2151;50.988;11.068;2023-05-07T04:31:26;148.13;;;19.43;;
4274;SDS011;2151;50.988;11.068;2023-05-07T04:33:53;144.47;;;18.60;;
4274;SDS011;2151;50.988;11.068;2023-05-07T04:36:19;143.60;;;19.20;;
4274;SDS011;2151;50.988;11.068;2023-05-07T04:38:45;141.10;;;18.23;;
4274;SDS011;2151;50.988;11.068;2023-05-07T04:41:12;144.73;;;18.97;;
4274;SDS011;2151;50.988;11.068;2023-05-07T04:43:38;144.30;;;19.33;;
4274;SDS011;2151;50.988;11.068;2023-05-07T04:46:05;142.67;;;17.53;;
4274;SDS011;2151;50.988;11.068;2023-05-07T04:48:31;143.90;;;18.23;;
4274;SDS011;2151;50.988;11.068;2023-05-07T04:50:57;145.70;;;18.17;;
4274;SDS011;2151;50.988;11.068;2023-05-07T04:53:24;141.03;;;16.93;;
4274;SDS011;2151;50.988;11.068;2023-05-07T04:55:56;140.37;;;17.33;;
4274;SDS011;2151;50.988;11.068;2023-05-07T04:58:23;140.83;;;17.17;;
4274;SDS011;2151;50.988;11.068;2023-05-07T05:00:50;138.00;;;16.57;;
4274;SDS011;2151;50.988;11.068;2023-05-07T05:03:16;139.40;;;17.30;;
4274;SDS011;2151;50.988;11.068;2023-05-07T05:05:43;137.27;;;16.57;;
4274;SDS011;2151;50.988;11.068;2023-05-07T05:08:09;139.27;;;17.07;;
4274;SDS011;2151;50.988;11.068;2023-05-07T05:10:36;144.77;;;18.60;;
4274;SDS011;2151;50.988;11.068;2023-05-07T05:13:02;142.47;;;18.53;;
4274;SDS011;2151;50.988;11.068;2023-05-07T05:15:29;142.30;;;19.10;;
4274;SDS011;2151;50.988;11.068;2023-05-07T05:17:58;143.70;;;18.67;;
4274;SDS011;2151;50.988;11.068;2023-05-07T05:20:25;145.73;;;19.63;;
4274;SDS011;2151;50.988;11.068;2023-05-07T05:22:52;142.87;;;18.90;;
4274;SDS011;2151;50.988;11.068;2023-05-07T05:25:18;149.20;;;20.90;;
4274;SDS011;2151;50.988;11.068;2023-05-07T05:27:44;142.10;;;19.30;;
4274;SDS011;2151;50.988;11.068;2023-05-07T05:30:11;147.07;;;20.27;;
4274;SDS011;2151;50.988;11.068;2023-05-07T05:32:38;145.97;;;19.63;;
4274;SDS011;2151;50.988;11.068;2023-05-07T05:35:05;149.00;;;19.97;;
4274;SDS011;2151;50.988;11.068;2023-05-07T05:37:32;142.03;;;18.87;;
4274;SDS011;2151;50.988;11.068;2023-05-07T05:39:58;143.47;;;20.20;;
4274;SDS011;2151;50.988;11.068;2023-05-07T05:42:24;141.53;;;19.17;;
4274;SDS011;2151;50.988;11.068;2023-05-07T05:44:51;142.50;;;18.80;;
4274;SDS011;2151;50.988;11.068;2023-05-07T05:47:17;144.97;;;19.97;;
4274;SDS011;2151;50.988;11.068;2023-05-07T05:49:44;143.43;;;19.37;;
4274;SDS011;2151;50.988;11.068;2023-05-07T05:52:11;146.67;;;19.60;;
4274;SDS011;2151;50.988;11.068;2023-05-07T05:54:38;148.17;;;19.77;;
4274;SDS011;2151;50.988;11.068;2023-05-07T05:57:05;146.10;;;19.87;;
4274;SDS011;2151;50.988;11.068;2023-05-07T05:59:32;149.80;;;20.47;;
4274;SDS011;2151;50.988;11.068;2023-05-07T06:01:58;145.27;;;18.90;;
4274;SDS011;2151;50.988;11.068;2023-05-07T06:04:25;147.40;;;20.23;;
4274;SDS011;2151;50.988;11.068;2023-05-07T06:06:51;143.73;;;18.97;;
4274;SDS011;2151;50.988;11.068;2023-05-07T06:09:18;144.27;;;18.57;;
4274;SDS011;2151;50.988;11.068;2023-05-07T06:11:44;143.40;;;18.30;;
4274;SDS011;2151;50.988;11.068;2023-05-07T06:14:10;142.87;;;18.67;;
4274;SDS011;2151;50.988;11.068;2023-05-07T06:16:37;141.40;;;17.60;;
4274;SDS011;2151;50.988;11.068;2023-05-07T06:19:04;141.10;;;17.27;;
4274;SDS011;2151;50.988;11.068;2023-05-07T06:21:30;140.67;;;15.93;;
4274;SDS011;2151;50.988;11.068;2023-05-07T06:23:57;138.67;;;16.40;;
4274;SDS011;2151;50.988;11.068;2023-05-07T06:26:23;139.80;;;16.70;;
4274;SDS011;2151;50.988;11.068;2023-05-07T06:28:50;141.23;;;15.83;;
4274;SDS011;2151;50.988;11.068;2023-05-07T06:31:17;137.90;;;16.63;;
4274;SDS011;2151;50.988;11.068;2023-05-07T06:33:44;137.70;;;15.83;;
4274;SDS011;2151;50.988;11.068;2023-05-07T06:36:11;139.83;;;16.13;;
4274;SDS011;2151;50.988;11.068;2023-05-07T06:38:37;138.27;;;14.73;;
4274;SDS011;2151;50.988;11.068;2023-05-07T06:41:05;134.30;;;14.60;;
4274;SDS011;2151;50.988;11.068;2023-05-07T06:43:31;135.17;;;15.17;;
4274;SDS011;2151;50.988;11.068;2023-05-07T06:45:58;136.37;;;14.70;;
4274;SDS011;2151;50.988;11.068;2023-05-07T06:48:24;137.23;;;13.90;;
4274;SDS011;2151;50.988;11.068;2023-05-07T06:50:51;135.60;;;14.10;;
4274;SDS011;2151;50.988;11.068;2023-05-07T06:53:17;136.80;;;14.57;;
4274;SDS011;2151;50.988;11.068;2023-05-07T06:55:44;134.20;;;13.83;;
4274;SDS011;2151;50.988;11.068;2023-05-07T06:58:10;135.07;;;14.93;;
4274;SDS011;2151;50.988;11.068;2023-05-07T07:00:36;134.30;;;14.50;;
4274;SDS011;2151;50.988;11.068;2023-05-07T07:03:03;136.80;;;13.63;;
4274;SDS011;2151;50.988;11.068;2023-05-07T07:05:29;136.37;;;14.90;;
4274;SDS011;2151;50.988;11.068;2023-05-07T07:07:56;132.53;;;13.80;;
4274;SDS011;2151;50.988;11.068;2023-05-07T07:10:22;134.57;;;14.17;;
4274;SDS011;2151;50.988;11.068;2023-05-07T07:12:49;132.70;;;13.80;;
4274;SDS011;2151;50.988;11.068;2023-05-07T07:15:16;135.70;;;14.70;;
4274;SDS011;2151;50.988;11.068;2023-05-07T07:17:42;139.57;;;13.77;;
4274;SDS011;2151;50.988;11.068;2023-05-07T07:20:09;132.57;;;13.67;;
4274;SDS011;2151;50.988;11.068;2023-05-07T07:22:37;132.20;;;13.60;;
4274;SDS011;2151;50.988;11.068;2023-05-07T07:25:04;132.87;;;13.40;;
4274;SDS011;2151;50.988;11.068;2023-05-07T07:27:30;132.60;;;13.47;;
4274;SDS011;2151;50.988;11.068;2023-05-07T07:29:57;130.73;;;13.60;;
4274;SDS011;2151;50.988;11.068;2023-05-07T07:32:23;130.63;;;13.30;;
4274;SDS011;2151;50.988;11.068;2023-05-07T07:34:50;132.50;;;13.40;;
4274;SDS011;2151;50.988;11.068;2023-05-07T07:37:16;132.20;;;14.67;;
4274;SDS011;2151;50.988;11.068;2023-05-07T07:39:43;131.77;;;13.57;;
4274;SDS011;2151;50.988;11.068;2023-05-07T07:42:09;134.53;;;14.90;;
4274;SDS011;2151;50.988;11.068;2023-05-07T07:44:35;137.40;;;16.13;;
4274;SDS011;2151;50.988;11.068;2023-05-07T07:47:02;134.47;;;14.23;;
4274;SDS011;2151;50.988;11.068;2023-05-07T07:49:28;132.37;;;14.50;;
4274;SDS011;2151;50.988;11.068;2023-05-07T07:51:55;131.77;;;13.57;;
4274;SDS011;2151;50.988;11.068;2023-05-07T07:54:24;132.83;;;13.70;;
4274;SDS011;2151;50.988;11.068;2023-05-07T07:56:51;134.00;;;15.00;;
4274;SDS011;2151;50.988;11.068;2023-05-07T07:59:18;133.97;;;14.63;;
4274;SDS011;2151;50.988;11.068;2023-05-07T08:01:45;133.83;;;14.33;;
4274;SDS011;2151;50.988;11.068;2023-05-07T08:04:11;137.80;;;14.53;;
4274;SDS011;2151;50.988;11.068;2023-05-07T08:06:38;135.00;;;13.30;;
4274;SDS011;2151;50.988;11.068;2023-05-07T08:09:05;129.50;;;12.70;;
4274;SDS011;2151;50.988;11.068;2023-05-07T08:11:31;133.10;;;13.93;;
4274;SDS011;2151;50.988;11.068;2023-05-07T08:13:57;134.20;;;14.53;;
4274;SDS011;2151;50.988;11.068;2023-05-07T08:16:24;131.67;;;13.07;;
4274;SDS011;2151;50.988;11.068;2023-05-07T08:18:51;132.10;;;13.57;;
4274;SDS011;2151;50.988;11.068;2023-05-07T08:21:17;132.23;;;14.33;;
4274;SDS011;2151;50.988;11.068;2023-05-07T08:23:43;131.03;;;12.50;;
4274;SDS011;2151;50.988;11.068;2023-05-07T08:26:11;133.47;;;13.97;;
4274;SDS011;2151;50.988;11.068;2023-05-07T08:28:37;132.20;;;13.60;;
4274;SDS011;2151;50.988;11.068;2023-05-07T08:31:04;132.43;;;13.30;;
4274;SDS011;2151;50.988;11.068;2023-05-07T08:33:30;134.80;;;14.70;;
4274;SDS011;2151;50.988;11.068;2023-05-07T08:35:57;136.13;;;16.50;;
4274;SDS011;2151;50.988;11.068;2023-05-07T08:38:24;134.97;;;15.50;;
4274;SDS011;2151;50.988;11.068;2023-05-07T08:40:51;134.80;;;15.70;;
4274;SDS011;2151;50.988;11.068;2023-05-07T08:43:18;136.77;;;15.50;;
4274;SDS011;2151;50.988;11.068;2023-05-07T08:45:45;136.73;;;15.63;;
4274;SDS011;2151;50.988;11.068;2023-05-07T08:48:14;137.50;;;14.83;;
4274;SDS011;2151;50.988;11.068;2023-05-07T08:50:41;130.77;;;13.60;;
4274;SDS011;2151;50.988;11.068;2023-05-07T08:53:08;136.37;;;15.90;;
4274;SDS011;2151;50.988;11.068;2023-05-07T08:55:34;135.67;;;14.60;;
4274;SDS011;2151;50.988;11.068;2023-05-07T08:58:01;132.57;;;15.00;;
4274;SDS011;2151;50.988;11.068;2023-05-07T09:00:27;137.80;;;16.43;;
4274;SDS011;2151;50.988;11.068;2023-05-07T09:02:54;132.63;;;14.30;;
4274;SDS011;2151;50.988;11.068;2023-05-07T09:05:20;135.43;;;15.70;;
4274;SDS011;2151;50.988;11.068;2023-05-07T09:07:47;136.40;;;16.23;;
4274;SDS011;2151;50.988;11.068;2023-05-07T09:10:13;137.60;;;16.27;;
4274;SDS011;2151;50.988;11.068;2023-05-07T09:12:40;134.43;;;15.57;;
4274;SDS011;2151;50.988;11.068;2023-05-07T09:15:07;135.13;;;15.50;;
4274;SDS011;2151;50.988;11.068;2023-05-07T09:17:34;135.27;;;14.73;;
4274;SDS011;2151;50.988;11.068;2023-05-07T09:20:04;136.10;;;16.03;;
4274;SDS011;2151;50.988;11.068;2023-05-07T09:22:37;140.77;;;16.73;;
4274;SDS011;2151;50.988;11.068;2023-05-07T09:25:05;135.97;;;15.33;;
4274;SDS011;2151;50.988;11.068;2023-05-07T09:27:32;138.97;;;16.70;;
4274;SDS011;2151;50.988;11.068;2023-05-07T09:29:58;133.27;;;15.03;;
4274;SDS011;2151;50.988;11.068;2023-05-07T09:32:25;141.27;;;16.97;;
4274;SDS011;2151;50.988;11.068;2023-05-07T09:34:52;135.90;;;15.90;;
4274;SDS011;2151;50.988;11.068;2023-05-07T09:37:18;136.63;;;15.80;;
4274;SDS011;2151;50.988;11.068;2023-05-07T09:39:45;136.20;;;16.40;;
4274;SDS011;2151;50.988;11.068;2023-05-07T09:42:12;136.80;;;15.77;;
4274;SDS011;2151;50.988;11.068;2023-05-07T09:44:41;134.03;;;15.10;;
4274;SDS011;2151;50.988;11.068;2023-05-07T09:47:09;132.70;;;14.40;;
4274;SDS011;2151;50.988;11.068;2023-05-07T09:49:37;134.30;;;16.00;;
4274;SDS011;2151;50.988;11.068;2023-05-07T09:52:04;133.53;;;14.70;;
4274;SDS011;2151;50.988;11.068;2023-05-07T09:54:32;136.40;;;15.67;;
4274;SDS011;2151;50.988;11.068;2023-05-07T09:57:01;133.67;;;14.93;;
4274;SDS011;2151;50.988;11.068;2023-05-07T09:59:29;131.43;;;15.13;;
4274;SDS011;2151;50.988;11.068;2023-05-07T10:01:58;133.90;;;15.87;;
4274;SDS011;2151;50.988;11.068;2023-05-07T10:04:25;133.53;;;15.50;;
4274;SDS011;2151;50.988;11.068;2023-05-07T10:06:52;132.27;;;14.53;;
4274;SDS011;2151;50.988;11.068;2023-05-07T10:09:19;133.80;;;14.47;;
4274;SDS011;2151;50.988;11.068;2023-05-07T10:11:47;131.13;;;15.30;;
4274;SDS011;2151;50.988;11.068;2023-05-07T10:14:14;135.23;;;16.13;;
4274;SDS011;2151;50.988;11.068;2023-05-07T10:16:41;134.53;;;15.90;;
4274;SDS011;2151;50.988;11.068;2023-05-07T10:19:08;135.70;;;15.60;;
4274;SDS011;2151;50.988;11.068;2023-05-07T10:21:38;133.80;;;15.40;;
4274;SDS011;2151;50.988;11.068;2023-05-07T10:24:09;132.20;;;15.43;;
4274;SDS011;2151;50.988;11.068;2023-05-07T10:26:43;133.07;;;15.80;;
4274;SDS011;2151;50.988;11.068;2023-05-07T10:29:18;132.50;;;15.70;;
4274;SDS011;2151;50.988;11.068;2023-05-07T10:34:14;132.97;;;15.93;;
4274;SDS011;2151;50.988;11.068;2023-05-07T10:36:41;132.77;;;15.37;;
4274;SDS011;2151;50.988;11.068;2023-05-07T10:39:08;133.27;;;14.00;;
4274;SDS011;2151;50.988;11.068;2023-05-07T10:41:35;132.03;;;15.43;;
4274;SDS011;2151;50.988;11.068;2023-05-07T10:44:03;132.97;;;14.73;;
4274;SDS011;2151;50.988;11.068;2023-05-07T10:46:29;129.70;;;14.63;;
4274;SDS011;2151;50.988;11.068;2023-05-07T10:51:27;131.00;;;13.70;;
4274;SDS011;2151;50.988;11.068;2023-05-07T10:56:38;131.23;;;14.90;;
4274;SDS011;2151;50.988;11.068;2023-05-07T11:01:53;132.80;;;14.23;;
4274;SDS011;2151;50.988;11.068;2023-05-07T11:04:20;131.37;;;14.40;;
4274;SDS011;2151;50.988;11.068;2023-05-07T11:12:13;133.40;;;14.40;;
4274;SDS011;2151;50.988;11.068;2023-05-07T11:17:07;131.77;;;14.43;;
4274;SDS011;2151;50.988;11.068;2023-05-07T11:19:53;130.57;;;14.43;;
4274;SDS011;2151;50.988;11.068;2023-05-07T11:24:59;136.87;;;15.50;;
4274;SDS011;2151;50.988;11.068;2023-05-07T11:27:26;134.20;;;16.33;;
4274;SDS011;2151;50.988;11.068;2023-05-07T11:29:52;130.93;;;14.70;;
4274;SDS011;2151;50.988;11.068;2023-05-07T11:32:22;128.63;;;13.80;;
4274;SDS011;2151;50.988;11.068;2023-05-07T11:34:56;129.57;;;14.07;;
4274;SDS011;2151;50.988;11.068;2023-05-07T11:37:23;130.03;;;14.53;;
4274;SDS011;2151;50.988;11.068;2023-05-07T11:39:50;133.93;;;15.07;;
4274;SDS011;2151;50.988;11.068;2023-05-07T11:42:25;132.00;;;13.80;;
4274;SDS011;2151;50.988;11.068;2023-05-07T11:44:52;132.40;;;15.30;;
4274;SDS011;2151;50.988;11.068;2023-05-07T11:47:18;131.83;;;15.63;;
4274;SDS011;2151;50.988;11.068;2023-05-07T11:49:48;129.77;;;14.67;;
4274;SDS011;2151;50.988;11.068;2023-05-07T11:52:15;135.17;;;15.90;;
4274;SDS011;2151;50.988;11.068;2023-05-07T11:54:48;131.50;;;15.00;;
4274;SDS011;2151;50.988;11.068;2023-05-07T11:57:14;131.27;;;15.30;;
4274;SDS011;2151;50.988;11.068;2023-05-07T11:59:41;130.60;;;14.27;;
4274;SDS011;2151;50.988;11.068;2023-05-07T12:02:07;130.17;;;14.20;;
4274;SDS011;2151;50.988;11.068;2023-05-07T12:04:34;127.40;;;13.60;;
4274;SDS011;2151;50.988;11.068;2023-05-07T12:07:01;132.77;;;13.50;;
4274;SDS011;2151;50.988;11.068;2023-05-07T12:09:27;126.07;;;12.53;;
4274;SDS011;2151;50.988;11.068;2023-05-07T12:11:54;127.17;;;13.23;;
4274;SDS011;2151;50.988;11.068;2023-05-07T12:14:22;129.80;;;13.63;;
4274;SDS011;2151;50.988;11.068;2023-05-07T12:16:53;125.87;;;12.27;;
4274;SDS011;2151;50.988;11.068;2023-05-07T12:19:19;127.87;;;12.20;;
4274;SDS011;2151;50.988;11.068;2023-05-07T12:21:46;130.23;;;12.77;;
4274;SDS011;2151;50.988;11.068;2023-05-07T12:24:14;128.23;;;12.77;;
4274;SDS011;2151;50.988;11.068;2023-05-07T12:26:40;125.30;;;11.80;;
4274;SDS011;2151;50.988;11.068;2023-05-07T12:29:07;126.50;;;12.03;;
4274;SDS011;2151;50.988;11.068;2023-05-07T12:31:34;127.37;;;12.70;;
4274;SDS011;2151;50.988;11.068;2023-05-07T12:34:00;127.37;;;13.23;;
4274;SDS011;2151;50.988;11.068;2023-05-07T12:36:27;127.17;;;12.23;;
4274;SDS011;2151;50.988;11.068;2023-05-07T12:39:02;128.00;;;12.83;;
4274;SDS011;2151;50.988;11.068;2023-05-07T12:41:30;123.90;;;11.77;;
4274;SDS011;2151;50.988;11.068;2023-05-07T12:43:56;128.30;;;12.67;;
4274;SDS011;2151;50.988;11.068;2023-05-07T12:46:23;125.37;;;12.30;;
4274;SDS011;2151;50.988;11.068;2023-05-07T12:48:50;127.03;;;12.10;;
4274;SDS011;2151;50.988;11.068;2023-05-07T12:51:18;124.57;;;11.90;;
4274;SDS011;2151;50.988;11.068;2023-05-07T12:53:44;127.13;;;12.87;;
4274;SDS011;2151;50.988;11.068;2023-05-07T12:56:11;123.77;;;11.30;;
4274;SDS011;2151;50.988;11.068;2023-05-07T12:58:37;128.57;;;12.27;;
4274;SDS011;2151;50.988;11.068;2023-05-07T13:01:07;125.10;;;11.60;;
4274;SDS011;2151;50.988;11.068;2023-05-07T13:03:34;123.40;;;11.43;;
4274;SDS011;2151;50.988;11.068;2023-05-07T13:06:03;123.30;;;11.30;;
4274;SDS011;2151;50.988;11.068;2023-05-07T13:08:36;126.00;;;12.27;;
4274;SDS011;2151;50.988;11.068;2023-05-07T13:11:03;125.27;;;12.00;;
4274;SDS011;2151;50.988;11.068;2023-05-07T13:13:31;126.00;;;11.43;;
4274;SDS011;2151;50.988;11.068;2023-05-07T13:15:58;123.97;;;11.60;;
4274;SDS011;2151;50.988;11.068;2023-05-07T13:18:25;123.30;;;11.33;;
4274;SDS011;2151;50.988;11.068;2023-05-07T13:20:52;125.63;;;12.33;;
4274;SDS011;2151;50.988;11.068;2023-05-07T13:23:19;123.37;;;11.70;;
4274;SDS011;2151;50.988;11.068;2023-05-07T13:25:45;121.47;;;11.17;;
4274;SDS011;2151;50.988;11.068;2023-05-07T13:28:12;122.30;;;11.30;;
4274;SDS011;2151;50.988;11.068;2023-05-07T13:30:38;123.17;;;11.50;;
4274;SDS011;2151;50.988;11.068;2023-05-07T13:33:06;121.77;;;11.57;;
4274;SDS011;2151;50.988;11.068;2023-05-07T13:35:33;126.07;;;13.20;;
4274;SDS011;2151;50.988;11.068;2023-05-07T13:37:59;123.57;;;12.23;;
4274;SDS011;2151;50.988;11.068;2023-05-07T13:40:26;123.80;;;13.47;;
4274;SDS011;2151;50.988;11.068;2023-05-07T13:42:53;123.57;;;13.60;;
4274;SDS011;2151;50.988;11.068;2023-05-07T13:45:19;123.50;;;13.33;;
4274;SDS011;2151;50.988;11.068;2023-05-07T13:47:46;123.53;;;13.47;;
4274;SDS011;2151;50.988;11.068;2023-05-07T13:50:12;122.70;;;12.60;;
4274;SDS011;2151;50.988;11.068;2023-05-07T13:52:42;123.57;;;12.70;;
4274;SDS011;2151;50.988;11.068;2023-05-07T13:55:12;124.40;;;13.00;;
4274;SDS011;2151;50.988;11.068;2023-05-07T13:57:38;122.57;;;11.97;;
4274;SDS011;2151;50.988;11.068;2023-05-07T14:00:05;123.20;;;12.80;;
4274;SDS011;2151;50.988;11.068;2023-05-07T14:02:32;125.17;;;12.30;;
4274;SDS011;2151;50.988;11.068;2023-05-07T14:04:58;122.50;;;12.40;;
4274;SDS011;2151;50.988;11.068;2023-05-07T14:07:25;122.70;;;12.37;;
4274;SDS011;2151;50.988;11.068;2023-05-07T14:09:51;126.43;;;11.70;;
4274;SDS011;2151;50.988;11.068;2023-05-07T14:12:17;122.20;;;11.73;;
4274;SDS011;2151;50.988;11.068;2023-05-07T14:14:44;123.17;;;13.50;;
4274;SDS011;2151;50.988;11.068;2023-05-07T14:17:11;124.33;;;14.10;;
4274;SDS011;2151;50.988;11.068;2023-05-07T14:19:38;125.73;;;16.70;;
4274;SDS011;2151;50.988;11.068;2023-05-07T14:22:04;127.30;;;17.17;;
4274;SDS011;2151;50.988;11.068;2023-05-07T14:24:31;127.20;;;16.47;;
4274;SDS011;2151;50.988;11.068;2023-05-07T14:27:04;128.20;;;16.50;;
4274;SDS011;2151;50.988;11.068;2023-05-07T14:29:30;126.57;;;15.47;;
4274;SDS011;2151;50.988;11.068;2023-05-07T14:31:57;130.73;;;16.00;;
4274;SDS011;2151;50.988;11.068;2023-05-07T14:34:23;128.47;;;15.73;;
4274;SDS011;2151;50.988;11.068;2023-05-07T14:36:49;131.40;;;16.77;;
4274;SDS011;2151;50.988;11.068;2023-05-07T14:39:16;127.97;;;15.90;;
4274;SDS011;2151;50.988;11.068;2023-05-07T14:41:42;127.50;;;15.33;;